sensor_id;sensor_type;location;lat;lon;timestamp;temperature;humidity
7666;DHT22;3875;46.562;4.898;2024-02-26T00:01:59;8.70;98.60
7666;DHT22;3875;46.562;4.898;2024-02-26T00:04:24;8.70;98.60
7666;DHT22;3875;46.562;4.898;2024-02-26T00:06:50;8.70;98.60
7666;DHT22;3875;46.562;4.898;2024-02-26T00:09:19;8.70;98.60
7666;DHT22;3875;46.562;4.898;2024-02-26T00:11:47;8.70;98.60
7666;DHT22;3875;46.562;4.898;2024-02-26T00:14:13;8.70;98.60
7666;DHT22;3875;46.562;4.898;2024-02-26T00:16:42;8.70;98.60
7666;DHT22;3875;46.562;4.898;2024-02-26T00:19:08;8.60;98.60
7666;DHT22;3875;46.562;4.898;2024-02-26T00:21:34;8.60;98.60
7666;DHT22;3875;46.562;4.898;2024-02-26T00:23:59;8.60;98.60
7666;DHT22;3875;46.562;4.898;2024-02-26T00:26:25;8.60;98.60
7666;DHT22;3875;46.562;4.898;2024-02-26T00:28:51;8.60;98.60
7666;DHT22;3875;46.562;4.898;2024-02-26T00:31:16;8.60;98.60
7666;DHT22;3875;46.562;4.898;2024-02-26T00:33:42;8.60;98.60
7666;DHT22;3875;46.562;4.898;2024-02-26T00:36:08;8.60;98.60
7666;DHT22;3875;46.562;4.898;2024-02-26T00:38:35;8.60;98.60
7666;DHT22;3875;46.562;4.898;2024-02-26T00:41:01;8.60;98.60
7666;DHT22;3875;46.562;4.898;2024-02-26T00:43:26;8.60;98.60
7666;DHT22;3875;46.562;4.898;2024-02-26T00:45:52;8.60;98.60
7666;DHT22;3875;46.562;4.898;2024-02-26T00:48:18;8.60;98.60
7666;DHT22;3875;46.562;4.898;2024-02-26T00:50:43;8.60;98.60
7666;DHT22;3875;46.562;4.898;2024-02-26T00:53:09;8.60;98.60
7666;DHT22;3875;46.562;4.898;2024-02-26T00:55:35;8.60;98.60
7666;DHT22;3875;46.562;4.898;2024-02-26T00:58:00;8.60;98.60
7666;DHT22;3875;46.562;4.898;2024-02-26T01:00:26;8.60;98.60
7666;DHT22;3875;46.562;4.898;2024-02-26T01:02:52;8.60;98.60
7666;DHT22;3875;46.562;4.898;2024-02-26T01:05:17;8.70;98.60
7666;DHT22;3875;46.562;4.898;2024-02-26T01:07:43;8.70;98.60
7666;DHT22;3875;46.562;4.898;2024-02-26T01:10:09;8.70;98.60
7666;DHT22;3875;46.562;4.898;2024-02-26T01:12:35;8.70;98.60
7666;DHT22;3875;46.562;4.898;2024-02-26T01:15:02;8.70;98.60
7666;DHT22;3875;46.562;4.898;2024-02-26T01:17:28;8.70;98.60
7666;DHT22;3875;46.562;4.898;2024-02-26T01:19:54;8.70;98.60
7666;DHT22;3875;46.562;4.898;2024-02-26T01:22:20;8.70;98.60
7666;DHT22;3875;46.562;4.898;2024-02-26T01:24:46;8.70;98.60
7666;DHT22;3875;46.562;4.898;2024-02-26T01:27:11;8.70;98.60
7666;DHT22;3875;46.562;4.898;2024-02-26T01:29:37;8.80;98.60
7666;DHT22;3875;46.562;4.898;2024-02-26T01:32:03;8.80;98.60
7666;DHT22;3875;46.562;4.898;2024-02-26T01:34:31;8.80;98.60
7666;DHT22;3875;46.562;4.898;2024-02-26T01:36:57;8.80;98.60
7666;DHT22;3875;46.562;4.898;2024-02-26T01:39:22;8.80;98.60
7666;DHT22;3875;46.562;4.898;2024-02-26T01:41:48;8.80;98.60
7666;DHT22;3875;46.562;4.898;2024-02-26T01:44:14;8.80;98.60
7666;DHT22;3875;46.562;4.898;2024-02-26T01:46:40;8.80;98.60
7666;DHT22;3875;46.562;4.898;2024-02-26T01:49:06;8.80;98.60
7666;DHT22;3875;46.562;4.898;2024-02-26T01:51:34;8.80;98.60
7666;DHT22;3875;46.562;4.898;2024-02-26T01:54:02;8.90;98.60
7666;DHT22;3875;46.562;4.898;2024-02-26T01:56:29;8.90;98.60
7666;DHT22;3875;46.562;4.898;2024-02-26T01:58:58;8.90;98.60
7666;DHT22;3875;46.562;4.898;2024-02-26T02:01:25;8.90;98.60
7666;DHT22;3875;46.562;4.898;2024-02-26T02:03:53;8.90;98.60
7666;DHT22;3875;46.562;4.898;2024-02-26T02:06:19;8.90;98.60
7666;DHT22;3875;46.562;4.898;2024-02-26T02:08:45;8.90;98.60
7666;DHT22;3875;46.562;4.898;2024-02-26T02:11:10;8.90;98.60
7666;DHT22;3875;46.562;4.898;2024-02-26T02:13:40;8.90;98.60
7666;DHT22;3875;46.562;4.898;2024-02-26T02:16:06;8.90;98.60
7666;DHT22;3875;46.562;4.898;2024-02-26T02:18:33;8.90;98.60
7666;DHT22;3875;46.562;4.898;2024-02-26T02:21:00;8.90;98.60
7666;DHT22;3875;46.562;4.898;2024-02-26T02:23:26;8.90;98.60
7666;DHT22;3875;46.562;4.898;2024-02-26T02:25:52;8.90;98.60
7666;DHT22;3875;46.562;4.898;2024-02-26T02:28:19;8.90;98.60
7666;DHT22;3875;46.562;4.898;2024-02-26T02:30:45;9.00;98.60
7666;DHT22;3875;46.562;4.898;2024-02-26T02:33:11;9.00;98.60
7666;DHT22;3875;46.562;4.898;2024-02-26T02:35:37;9.00;98.60
7666;DHT22;3875;46.562;4.898;2024-02-26T02:38:03;9.00;98.60
7666;DHT22;3875;46.562;4.898;2024-02-26T02:40:29;8.90;98.60
7666;DHT22;3875;46.562;4.898;2024-02-26T02:42:55;8.90;98.60
7666;DHT22;3875;46.562;4.898;2024-02-26T02:45:20;8.90;98.60
7666;DHT22;3875;46.562;4.898;2024-02-26T02:47:46;8.90;98.60
7666;DHT22;3875;46.562;4.898;2024-02-26T02:50:12;8.90;98.60
7666;DHT22;3875;46.562;4.898;2024-02-26T02:52:37;8.90;98.60
7666;DHT22;3875;46.562;4.898;2024-02-26T02:55:03;8.90;98.60
7666;DHT22;3875;46.562;4.898;2024-02-26T02:57:30;8.90;98.60
7666;DHT22;3875;46.562;4.898;2024-02-26T02:59:56;8.90;98.60
7666;DHT22;3875;46.562;4.898;2024-02-26T03:02:21;8.90;98.60
7666;DHT22;3875;46.562;4.898;2024-02-26T03:04:50;8.90;98.60
7666;DHT22;3875;46.562;4.898;2024-02-26T03:07:16;8.80;98.60
7666;DHT22;3875;46.562;4.898;2024-02-26T03:09:42;8.80;98.60
7666;DHT22;3875;46.562;4.898;2024-02-26T03:12:07;8.80;98.60
7666;DHT22;3875;46.562;4.898;2024-02-26T03:14:33;8.80;98.60
7666;DHT22;3875;46.562;4.898;2024-02-26T03:16:59;8.80;98.60
7666;DHT22;3875;46.562;4.898;2024-02-26T03:19:25;8.80;98.60
7666;DHT22;3875;46.562;4.898;2024-02-26T03:21:50;8.80;98.60
7666;DHT22;3875;46.562;4.898;2024-02-26T03:24:16;8.80;98.60
7666;DHT22;3875;46.562;4.898;2024-02-26T03:26:42;8.80;98.60
7666;DHT22;3875;46.562;4.898;2024-02-26T03:29:08;8.80;98.60
7666;DHT22;3875;46.562;4.898;2024-02-26T03:31:34;8.80;98.60
7666;DHT22;3875;46.562;4.898;2024-02-26T03:33:59;8.80;98.60
7666;DHT22;3875;46.562;4.898;2024-02-26T03:36:25;8.70;98.60
7666;DHT22;3875;46.562;4.898;2024-02-26T03:38:51;8.70;98.60
7666;DHT22;3875;46.562;4.898;2024-02-26T03:41:16;8.70;98.60
7666;DHT22;3875;46.562;4.898;2024-02-26T03:43:42;8.70;98.60
7666;DHT22;3875;46.562;4.898;2024-02-26T03:46:08;8.70;98.60
7666;DHT22;3875;46.562;4.898;2024-02-26T03:48:40;8.70;98.60
7666;DHT22;3875;46.562;4.898;2024-02-26T03:51:05;8.70;98.60
7666;DHT22;3875;46.562;4.898;2024-02-26T03:53:31;8.70;98.60
7666;DHT22;3875;46.562;4.898;2024-02-26T03:55:57;8.70;98.60
7666;DHT22;3875;46.562;4.898;2024-02-26T03:58:22;8.70;98.60
7666;DHT22;3875;46.562;4.898;2024-02-26T04:00:48;8.70;98.60
7666;DHT22;3875;46.562;4.898;2024-02-26T04:03:14;8.60;98.60
7666;DHT22;3875;46.562;4.898;2024-02-26T04:05:40;8.70;98.60
7666;DHT22;3875;46.562;4.898;2024-02-26T04:08:08;8.70;98.60
7666;DHT22;3875;46.562;4.898;2024-02-26T04:10:42;8.60;98.60
7666;DHT22;3875;46.562;4.898;2024-02-26T04:13:15;8.60;98.60
7666;DHT22;3875;46.562;4.898;2024-02-26T04:15:44;8.70;98.60
7666;DHT22;3875;46.562;4.898;2024-02-26T04:18:09;8.70;98.60
7666;DHT22;3875;46.562;4.898;2024-02-26T04:20:35;8.60;98.60
7666;DHT22;3875;46.562;4.898;2024-02-26T04:23:01;8.60;98.60
7666;DHT22;3875;46.562;4.898;2024-02-26T04:25:26;8.60;98.60
7666;DHT22;3875;46.562;4.898;2024-02-26T04:27:54;8.60;98.60
7666;DHT22;3875;46.562;4.898;2024-02-26T04:30:19;8.60;98.60
7666;DHT22;3875;46.562;4.898;2024-02-26T04:32:45;8.60;98.60
7666;DHT22;3875;46.562;4.898;2024-02-26T04:35:11;8.60;98.60
7666;DHT22;3875;46.562;4.898;2024-02-26T04:37:37;8.60;98.60
7666;DHT22;3875;46.562;4.898;2024-02-26T04:40:03;8.50;98.60
7666;DHT22;3875;46.562;4.898;2024-02-26T04:42:30;8.50;98.60
7666;DHT22;3875;46.562;4.898;2024-02-26T04:44:57;8.50;98.60
7666;DHT22;3875;46.562;4.898;2024-02-26T04:47:23;8.50;98.60
7666;DHT22;3875;46.562;4.898;2024-02-26T04:49:56;8.50;98.60
7666;DHT22;3875;46.562;4.898;2024-02-26T04:52:37;8.50;98.60
7666;DHT22;3875;46.562;4.898;2024-02-26T04:55:19;8.50;98.60
7666;DHT22;3875;46.562;4.898;2024-02-26T04:58:13;8.50;98.60
7666;DHT22;3875;46.562;4.898;2024-02-26T05:01:05;8.40;98.60
7666;DHT22;3875;46.562;4.898;2024-02-26T05:03:41;8.40;98.60
7666;DHT22;3875;46.562;4.898;2024-02-26T05:06:27;8.50;98.60
7666;DHT22;3875;46.562;4.898;2024-02-26T05:11:56;8.40;98.60
7666;DHT22;3875;46.562;4.898;2024-02-26T05:14:45;8.50;98.60
7666;DHT22;3875;46.562;4.898;2024-02-26T05:17:13;8.40;98.60
7666;DHT22;3875;46.562;4.898;2024-02-26T05:19:39;8.40;98.60
7666;DHT22;3875;46.562;4.898;2024-02-26T05:22:04;8.40;98.60
7666;DHT22;3875;46.562;4.898;2024-02-26T05:24:30;8.40;98.60
7666;DHT22;3875;46.562;4.898;2024-02-26T05:26:56;8.40;98.60
7666;DHT22;3875;46.562;4.898;2024-02-26T05:29:21;8.40;98.60
7666;DHT22;3875;46.562;4.898;2024-02-26T05:31:47;8.30;98.60
7666;DHT22;3875;46.562;4.898;2024-02-26T05:34:13;8.30;98.60
7666;DHT22;3875;46.562;4.898;2024-02-26T05:36:38;8.30;98.60
7666;DHT22;3875;46.562;4.898;2024-02-26T05:39:04;8.30;98.60
7666;DHT22;3875;46.562;4.898;2024-02-26T05:41:30;8.30;98.60
7666;DHT22;3875;46.562;4.898;2024-02-26T05:43:56;8.30;98.60
7666;DHT22;3875;46.562;4.898;2024-02-26T05:46:22;8.20;98.60
7666;DHT22;3875;46.562;4.898;2024-02-26T05:48:50;8.20;98.60
7666;DHT22;3875;46.562;4.898;2024-02-26T05:51:16;8.20;98.60
7666;DHT22;3875;46.562;4.898;2024-02-26T05:53:42;8.10;98.60
7666;DHT22;3875;46.562;4.898;2024-02-26T05:56:08;8.10;98.60
7666;DHT22;3875;46.562;4.898;2024-02-26T05:58:34;8.10;98.60
7666;DHT22;3875;46.562;4.898;2024-02-26T06:00:59;8.10;98.60
7666;DHT22;3875;46.562;4.898;2024-02-26T06:03:26;8.10;98.60
7666;DHT22;3875;46.562;4.898;2024-02-26T06:05:52;8.10;98.60
7666;DHT22;3875;46.562;4.898;2024-02-26T06:08:17;8.10;98.60
7666;DHT22;3875;46.562;4.898;2024-02-26T06:10:43;8.00;98.60
7666;DHT22;3875;46.562;4.898;2024-02-26T06:13:09;8.00;98.60
7666;DHT22;3875;46.562;4.898;2024-02-26T06:15:35;8.00;98.60
7666;DHT22;3875;46.562;4.898;2024-02-26T06:18:00;8.00;98.60
7666;DHT22;3875;46.562;4.898;2024-02-26T06:20:26;8.00;98.60
7666;DHT22;3875;46.562;4.898;2024-02-26T06:22:52;8.00;98.60
7666;DHT22;3875;46.562;4.898;2024-02-26T06:25:17;8.00;98.60
7666;DHT22;3875;46.562;4.898;2024-02-26T06:27:43;8.00;98.60
7666;DHT22;3875;46.562;4.898;2024-02-26T06:30:09;8.00;98.60
7666;DHT22;3875;46.562;4.898;2024-02-26T06:32:39;8.00;98.60
7666;DHT22;3875;46.562;4.898;2024-02-26T06:35:05;8.00;98.60
7666;DHT22;3875;46.562;4.898;2024-02-26T06:37:33;8.10;98.60
7666;DHT22;3875;46.562;4.898;2024-02-26T06:40:00;8.10;98.60
7666;DHT22;3875;46.562;4.898;2024-02-26T06:42:25;8.10;98.60
7666;DHT22;3875;46.562;4.898;2024-02-26T06:44:51;8.20;98.60
7666;DHT22;3875;46.562;4.898;2024-02-26T06:47:17;8.20;98.60
7666;DHT22;3875;46.562;4.898;2024-02-26T06:49:43;8.20;98.60
7666;DHT22;3875;46.562;4.898;2024-02-26T06:52:09;8.20;98.60
7666;DHT22;3875;46.562;4.898;2024-02-26T06:54:35;8.20;98.60
7666;DHT22;3875;46.562;4.898;2024-02-26T06:57:01;8.30;98.60
7666;DHT22;3875;46.562;4.898;2024-02-26T06:59:26;8.40;98.60
7666;DHT22;3875;46.562;4.898;2024-02-26T07:01:52;8.40;98.60
7666;DHT22;3875;46.562;4.898;2024-02-26T07:04:20;8.60;98.60
7666;DHT22;3875;46.562;4.898;2024-02-26T07:06:45;8.70;98.60
7666;DHT22;3875;46.562;4.898;2024-02-26T07:09:12;8.80;98.60
7666;DHT22;3875;46.562;4.898;2024-02-26T07:11:38;8.90;98.60
7666;DHT22;3875;46.562;4.898;2024-02-26T07:14:08;8.90;98.60
7666;DHT22;3875;46.562;4.898;2024-02-26T07:16:33;8.90;98.60
7666;DHT22;3875;46.562;4.898;2024-02-26T07:18:59;9.00;98.50
7666;DHT22;3875;46.562;4.898;2024-02-26T07:21:25;9.00;98.50
7666;DHT22;3875;46.562;4.898;2024-02-26T07:23:51;9.00;98.50
7666;DHT22;3875;46.562;4.898;2024-02-26T07:26:16;9.00;98.50
7666;DHT22;3875;46.562;4.898;2024-02-26T07:28:46;9.00;98.50
7666;DHT22;3875;46.562;4.898;2024-02-26T07:31:12;9.10;98.30
7666;DHT22;3875;46.562;4.898;2024-02-26T07:33:38;9.10;98.40
7666;DHT22;3875;46.562;4.898;2024-02-26T07:36:04;9.20;98.40
7666;DHT22;3875;46.562;4.898;2024-02-26T07:38:30;9.20;98.10
7666;DHT22;3875;46.562;4.898;2024-02-26T07:40:55;9.20;98.00
7666;DHT22;3875;46.562;4.898;2024-02-26T07:43:22;9.20;97.90
7666;DHT22;3875;46.562;4.898;2024-02-26T07:45:48;9.20;98.00
7666;DHT22;3875;46.562;4.898;2024-02-26T07:48:14;9.20;98.00
7666;DHT22;3875;46.562;4.898;2024-02-26T07:50:39;9.30;98.00
7666;DHT22;3875;46.562;4.898;2024-02-26T07:53:06;9.40;97.90
7666;DHT22;3875;46.562;4.898;2024-02-26T07:55:31;9.50;97.80
7666;DHT22;3875;46.562;4.898;2024-02-26T07:57:57;9.70;97.60
7666;DHT22;3875;46.562;4.898;2024-02-26T08:00:23;9.90;97.10
7666;DHT22;3875;46.562;4.898;2024-02-26T08:02:49;10.00;96.10
7666;DHT22;3875;46.562;4.898;2024-02-26T08:05:14;9.90;95.70
7666;DHT22;3875;46.562;4.898;2024-02-26T08:07:40;9.80;96.00
7666;DHT22;3875;46.562;4.898;2024-02-26T08:10:07;9.80;96.30
7666;DHT22;3875;46.562;4.898;2024-02-26T08:12:32;9.70;96.30
7666;DHT22;3875;46.562;4.898;2024-02-26T08:14:59;9.70;96.40
7666;DHT22;3875;46.562;4.898;2024-02-26T08:17:25;9.60;96.50
7666;DHT22;3875;46.562;4.898;2024-02-26T08:19:52;9.60;96.70
7666;DHT22;3875;46.562;4.898;2024-02-26T08:22:18;9.60;96.60
7666;DHT22;3875;46.562;4.898;2024-02-26T08:24:44;9.60;96.50
7666;DHT22;3875;46.562;4.898;2024-02-26T08:27:10;9.60;96.50
7666;DHT22;3875;46.562;4.898;2024-02-26T08:29:35;9.70;96.50
7666;DHT22;3875;46.562;4.898;2024-02-26T08:32:02;9.70;96.30
7666;DHT22;3875;46.562;4.898;2024-02-26T08:34:27;9.70;96.40
7666;DHT22;3875;46.562;4.898;2024-02-26T08:36:53;9.80;96.40
7666;DHT22;3875;46.562;4.898;2024-02-26T08:39:19;9.90;96.50
7666;DHT22;3875;46.562;4.898;2024-02-26T08:41:45;10.00;95.90
7666;DHT22;3875;46.562;4.898;2024-02-26T08:44:10;10.10;95.70
7666;DHT22;3875;46.562;4.898;2024-02-26T08:46:42;10.10;95.50
7666;DHT22;3875;46.562;4.898;2024-02-26T08:49:11;10.20;95.70
7666;DHT22;3875;46.562;4.898;2024-02-26T08:51:46;10.30;95.60
7666;DHT22;3875;46.562;4.898;2024-02-26T08:54:12;10.30;95.50
7666;DHT22;3875;46.562;4.898;2024-02-26T08:56:37;10.30;95.10
7666;DHT22;3875;46.562;4.898;2024-02-26T08:59:03;10.30;95.20
7666;DHT22;3875;46.562;4.898;2024-02-26T09:01:32;10.40;95.10
7666;DHT22;3875;46.562;4.898;2024-02-26T09:03:58;10.40;95.20
7666;DHT22;3875;46.562;4.898;2024-02-26T09:06:24;10.40;95.20
7666;DHT22;3875;46.562;4.898;2024-02-26T09:08:50;10.50;95.10
7666;DHT22;3875;46.562;4.898;2024-02-26T09:11:16;10.50;94.70
7666;DHT22;3875;46.562;4.898;2024-02-26T09:13:41;10.40;94.60
7666;DHT22;3875;46.562;4.898;2024-02-26T09:16:07;10.40;94.60
7666;DHT22;3875;46.562;4.898;2024-02-26T09:18:44;10.40;94.60
7666;DHT22;3875;46.562;4.898;2024-02-26T09:21:10;10.40;94.30
7666;DHT22;3875;46.562;4.898;2024-02-26T09:23:36;10.40;94.70
7666;DHT22;3875;46.562;4.898;2024-02-26T09:29:18;10.70;95.00
7666;DHT22;3875;46.562;4.898;2024-02-26T09:32:24;10.90;94.80
7666;DHT22;3875;46.562;4.898;2024-02-26T09:34:50;11.10;94.00
7666;DHT22;3875;46.562;4.898;2024-02-26T09:37:16;11.10;93.30
7666;DHT22;3875;46.562;4.898;2024-02-26T09:39:42;11.20;93.30
7666;DHT22;3875;46.562;4.898;2024-02-26T09:42:09;11.20;93.20
7666;DHT22;3875;46.562;4.898;2024-02-26T09:44:59;11.20;93.30
7666;DHT22;3875;46.562;4.898;2024-02-26T09:47:37;11.30;93.40
7666;DHT22;3875;46.562;4.898;2024-02-26T09:50:06;11.40;93.60
7666;DHT22;3875;46.562;4.898;2024-02-26T09:52:33;11.40;92.90
7666;DHT22;3875;46.562;4.898;2024-02-26T09:55:02;11.40;93.00
7666;DHT22;3875;46.562;4.898;2024-02-26T10:01:16;11.90;93.40
7666;DHT22;3875;46.562;4.898;2024-02-26T10:11:00;13.30;90.30
7666;DHT22;3875;46.562;4.898;2024-02-26T10:13:34;13.80;88.10
7666;DHT22;3875;46.562;4.898;2024-02-26T10:19:44;14.10;87.00
7666;DHT22;3875;46.562;4.898;2024-02-26T10:22:16;14.00;86.40
7666;DHT22;3875;46.562;4.898;2024-02-26T10:24:41;13.90;87.10
7666;DHT22;3875;46.562;4.898;2024-02-26T10:27:08;13.80;86.60
7666;DHT22;3875;46.562;4.898;2024-02-26T10:29:35;13.60;86.80
7666;DHT22;3875;46.562;4.898;2024-02-26T10:32:03;13.50;86.40
7666;DHT22;3875;46.562;4.898;2024-02-26T10:34:34;13.40;86.80
7666;DHT22;3875;46.562;4.898;2024-02-26T10:37:01;13.40;87.20
7666;DHT22;3875;46.562;4.898;2024-02-26T10:39:46;13.50;87.50
7666;DHT22;3875;46.562;4.898;2024-02-26T10:42:12;13.70;86.70
7666;DHT22;3875;46.562;4.898;2024-02-26T10:48:03;13.90;85.90
7666;DHT22;3875;46.562;4.898;2024-02-26T10:54:02;14.20;83.90
7666;DHT22;3875;46.562;4.898;2024-02-26T10:56:34;14.20;84.00
7666;DHT22;3875;46.562;4.898;2024-02-26T10:59:00;14.40;85.00
7666;DHT22;3875;46.562;4.898;2024-02-26T11:01:27;14.60;84.50
7666;DHT22;3875;46.562;4.898;2024-02-26T11:04:05;14.70;83.10
7666;DHT22;3875;46.562;4.898;2024-02-26T11:06:34;14.80;83.20
7666;DHT22;3875;46.562;4.898;2024-02-26T11:09:01;14.90;82.70
7666;DHT22;3875;46.562;4.898;2024-02-26T11:11:29;15.10;81.90
7666;DHT22;3875;46.562;4.898;2024-02-26T11:13:56;15.30;82.70
7666;DHT22;3875;46.562;4.898;2024-02-26T11:16:23;15.50;81.60
7666;DHT22;3875;46.562;4.898;2024-02-26T11:18:49;15.70;81.00
7666;DHT22;3875;46.562;4.898;2024-02-26T11:21:16;15.90;80.00
7666;DHT22;3875;46.562;4.898;2024-02-26T11:23:46;16.00;79.90
7666;DHT22;3875;46.562;4.898;2024-02-26T11:26:12;16.40;79.60
7666;DHT22;3875;46.562;4.898;2024-02-26T11:28:40;16.50;79.00
7666;DHT22;3875;46.562;4.898;2024-02-26T11:31:07;16.60;77.70
7666;DHT22;3875;46.562;4.898;2024-02-26T11:33:33;16.80;76.30
7666;DHT22;3875;46.562;4.898;2024-02-26T11:36:02;16.90;76.00
7666;DHT22;3875;46.562;4.898;2024-02-26T11:38:28;17.20;76.40
7666;DHT22;3875;46.562;4.898;2024-02-26T11:40:54;17.40;74.90
7666;DHT22;3875;46.562;4.898;2024-02-26T11:43:48;17.40;74.90
7666;DHT22;3875;46.562;4.898;2024-02-26T11:46:28;17.30;73.90
7666;DHT22;3875;46.562;4.898;2024-02-26T11:51:53;16.80;74.70
7666;DHT22;3875;46.562;4.898;2024-02-26T11:57:27;17.10;75.10
7666;DHT22;3875;46.562;4.898;2024-02-26T11:59:54;17.20;73.10
7666;DHT22;3875;46.562;4.898;2024-02-26T12:05:17;17.40;73.30
7666;DHT22;3875;46.562;4.898;2024-02-26T12:10:26;17.50;73.80
7666;DHT22;3875;46.562;4.898;2024-02-26T12:15:23;17.60;73.50
7666;DHT22;3875;46.562;4.898;2024-02-26T12:17:49;17.60;73.10
7666;DHT22;3875;46.562;4.898;2024-02-26T12:20:17;17.60;73.00
7666;DHT22;3875;46.562;4.898;2024-02-26T12:22:49;17.40;72.40
7666;DHT22;3875;46.562;4.898;2024-02-26T12:25:16;17.10;72.90
7666;DHT22;3875;46.562;4.898;2024-02-26T12:27:41;17.00;74.30
7666;DHT22;3875;46.562;4.898;2024-02-26T12:30:08;17.30;73.90
7666;DHT22;3875;46.562;4.898;2024-02-26T12:32:35;17.60;73.90
7666;DHT22;3875;46.562;4.898;2024-02-26T12:35:01;17.90;71.60
7666;DHT22;3875;46.562;4.898;2024-02-26T12:37:27;17.80;72.30
7666;DHT22;3875;46.562;4.898;2024-02-26T12:39:53;17.90;72.60
7666;DHT22;3875;46.562;4.898;2024-02-26T12:42:19;18.00;72.60
7666;DHT22;3875;46.562;4.898;2024-02-26T12:44:46;18.10;71.50
7666;DHT22;3875;46.562;4.898;2024-02-26T12:47:12;18.10;72.10
7666;DHT22;3875;46.562;4.898;2024-02-26T12:49:47;18.30;72.50
7666;DHT22;3875;46.562;4.898;2024-02-26T12:52:14;18.40;71.90
7666;DHT22;3875;46.562;4.898;2024-02-26T12:54:40;18.40;71.90
7666;DHT22;3875;46.562;4.898;2024-02-26T12:57:08;18.40;71.30
7666;DHT22;3875;46.562;4.898;2024-02-26T12:59:35;18.40;71.00
7666;DHT22;3875;46.562;4.898;2024-02-26T13:02:02;18.00;70.80
7666;DHT22;3875;46.562;4.898;2024-02-26T13:04:29;18.00;71.50
7666;DHT22;3875;46.562;4.898;2024-02-26T13:06:56;18.10;70.80
7666;DHT22;3875;46.562;4.898;2024-02-26T13:09:27;18.00;70.30
7666;DHT22;3875;46.562;4.898;2024-02-26T13:11:56;17.60;70.30
7666;DHT22;3875;46.562;4.898;2024-02-26T13:14:22;17.30;71.10
7666;DHT22;3875;46.562;4.898;2024-02-26T13:16:57;17.00;71.20
7666;DHT22;3875;46.562;4.898;2024-02-26T13:19:23;16.80;72.40
7666;DHT22;3875;46.562;4.898;2024-02-26T13:21:49;16.70;72.90
7666;DHT22;3875;46.562;4.898;2024-02-26T13:24:15;16.60;73.40
7666;DHT22;3875;46.562;4.898;2024-02-26T13:26:41;16.50;72.90
7666;DHT22;3875;46.562;4.898;2024-02-26T13:29:07;16.40;72.90
7666;DHT22;3875;46.562;4.898;2024-02-26T13:31:39;16.40;73.30
7666;DHT22;3875;46.562;4.898;2024-02-26T13:34:05;16.50;73.50
7666;DHT22;3875;46.562;4.898;2024-02-26T13:36:31;16.50;72.60
7666;DHT22;3875;46.562;4.898;2024-02-26T13:38:57;16.40;73.30
7666;DHT22;3875;46.562;4.898;2024-02-26T13:41:22;16.40;73.50
7666;DHT22;3875;46.562;4.898;2024-02-26T13:43:48;16.40;73.40
7666;DHT22;3875;46.562;4.898;2024-02-26T13:46:15;16.60;74.00
7666;DHT22;3875;46.562;4.898;2024-02-26T13:48:43;17.00;73.10
7666;DHT22;3875;46.562;4.898;2024-02-26T13:51:12;17.10;72.20
7666;DHT22;3875;46.562;4.898;2024-02-26T13:53:38;17.10;72.40
7666;DHT22;3875;46.562;4.898;2024-02-26T13:56:03;17.30;73.20
7666;DHT22;3875;46.562;4.898;2024-02-26T13:58:31;17.50;72.30
7666;DHT22;3875;46.562;4.898;2024-02-26T14:00:56;17.70;72.40
7666;DHT22;3875;46.562;4.898;2024-02-26T14:03:23;17.90;71.50
7666;DHT22;3875;46.562;4.898;2024-02-26T14:05:49;18.00;70.70
7666;DHT22;3875;46.562;4.898;2024-02-26T14:08:15;18.10;70.20
7666;DHT22;3875;46.562;4.898;2024-02-26T14:10:41;18.10;69.80
7666;DHT22;3875;46.562;4.898;2024-02-26T14:13:06;18.10;70.20
7666;DHT22;3875;46.562;4.898;2024-02-26T14:15:33;18.20;71.00
7666;DHT22;3875;46.562;4.898;2024-02-26T14:18:01;18.10;69.30
7666;DHT22;3875;46.562;4.898;2024-02-26T14:20:28;17.70;69.00
7666;DHT22;3875;46.562;4.898;2024-02-26T14:22:54;17.50;69.40
7666;DHT22;3875;46.562;4.898;2024-02-26T14:25:20;17.40;69.00
7666;DHT22;3875;46.562;4.898;2024-02-26T14:27:47;17.10;69.80
7666;DHT22;3875;46.562;4.898;2024-02-26T14:30:13;16.70;69.80
7666;DHT22;3875;46.562;4.898;2024-02-26T14:32:39;16.40;71.10
7666;DHT22;3875;46.562;4.898;2024-02-26T14:35:08;16.20;71.80
7666;DHT22;3875;46.562;4.898;2024-02-26T14:37:40;16.30;73.10
7666;DHT22;3875;46.562;4.898;2024-02-26T14:40:06;16.50;73.00
7666;DHT22;3875;46.562;4.898;2024-02-26T14:42:33;16.50;73.00
7666;DHT22;3875;46.562;4.898;2024-02-26T14:44:59;16.40;72.10
7666;DHT22;3875;46.562;4.898;2024-02-26T14:47:25;16.20;71.60
7666;DHT22;3875;46.562;4.898;2024-02-26T14:49:51;16.10;71.60
7666;DHT22;3875;46.562;4.898;2024-02-26T14:52:17;16.10;72.20
7666;DHT22;3875;46.562;4.898;2024-02-26T14:54:43;16.10;72.40
7666;DHT22;3875;46.562;4.898;2024-02-26T14:57:09;16.00;71.70
7666;DHT22;3875;46.562;4.898;2024-02-26T14:59:34;16.10;71.90
7666;DHT22;3875;46.562;4.898;2024-02-26T15:02:02;16.20;71.90
7666;DHT22;3875;46.562;4.898;2024-02-26T15:04:28;16.20;71.60
7666;DHT22;3875;46.562;4.898;2024-02-26T15:06:53;16.40;71.90
7666;DHT22;3875;46.562;4.898;2024-02-26T15:09:19;16.50;71.30
7666;DHT22;3875;46.562;4.898;2024-02-26T15:11:45;16.70;71.40
7666;DHT22;3875;46.562;4.898;2024-02-26T15:14:11;16.70;70.40
7666;DHT22;3875;46.562;4.898;2024-02-26T15:16:36;16.80;70.40
7666;DHT22;3875;46.562;4.898;2024-02-26T15:19:02;16.70;69.70
7666;DHT22;3875;46.562;4.898;2024-02-26T15:21:32;16.40;69.90
7666;DHT22;3875;46.562;4.898;2024-02-26T15:23:58;16.10;70.30
7666;DHT22;3875;46.562;4.898;2024-02-26T15:26:24;16.10;71.40
7666;DHT22;3875;46.562;4.898;2024-02-26T15:28:51;16.10;71.30
7666;DHT22;3875;46.562;4.898;2024-02-26T15:31:17;16.20;71.60
7666;DHT22;3875;46.562;4.898;2024-02-26T15:33:44;16.40;71.40
7666;DHT22;3875;46.562;4.898;2024-02-26T15:36:10;16.40;71.00
7666;DHT22;3875;46.562;4.898;2024-02-26T15:38:36;16.60;70.70
7666;DHT22;3875;46.562;4.898;2024-02-26T15:41:02;16.70;70.90
7666;DHT22;3875;46.562;4.898;2024-02-26T15:43:27;16.70;70.90
7666;DHT22;3875;46.562;4.898;2024-02-26T15:45:53;16.80;70.10
7666;DHT22;3875;46.562;4.898;2024-02-26T15:48:19;17.00;70.80
7666;DHT22;3875;46.562;4.898;2024-02-26T15:50:44;17.40;70.70
7666;DHT22;3875;46.562;4.898;2024-02-26T15:53:10;17.90;69.20
7666;DHT22;3875;46.562;4.898;2024-02-26T15:55:36;18.50;68.40
7666;DHT22;3875;46.562;4.898;2024-02-26T15:58:01;19.00;66.40
7666;DHT22;3875;46.562;4.898;2024-02-26T16:00:27;19.10;64.90
7666;DHT22;3875;46.562;4.898;2024-02-26T16:02:53;18.50;65.20
7666;DHT22;3875;46.562;4.898;2024-02-26T16:05:18;17.60;66.30
7666;DHT22;3875;46.562;4.898;2024-02-26T16:07:51;16.90;68.30
7666;DHT22;3875;46.562;4.898;2024-02-26T16:10:18;16.30;69.90
7666;DHT22;3875;46.562;4.898;2024-02-26T16:12:55;16.00;71.00
7666;DHT22;3875;46.562;4.898;2024-02-26T16:15:21;15.70;71.90
7666;DHT22;3875;46.562;4.898;2024-02-26T16:17:48;15.50;72.20
7666;DHT22;3875;46.562;4.898;2024-02-26T16:20:18;15.30;72.60
7666;DHT22;3875;46.562;4.898;2024-02-26T16:22:45;15.20;73.10
7666;DHT22;3875;46.562;4.898;2024-02-26T16:25:11;15.00;73.50
7666;DHT22;3875;46.562;4.898;2024-02-26T16:27:37;14.90;73.80
7666;DHT22;3875;46.562;4.898;2024-02-26T16:30:07;14.80;74.30
7666;DHT22;3875;46.562;4.898;2024-02-26T16:32:36;14.70;74.40
7666;DHT22;3875;46.562;4.898;2024-02-26T16:35:11;14.60;74.90
7666;DHT22;3875;46.562;4.898;2024-02-26T16:37:37;14.50;75.10
7666;DHT22;3875;46.562;4.898;2024-02-26T16:40:04;14.50;75.40
7666;DHT22;3875;46.562;4.898;2024-02-26T16:42:30;14.40;75.60
7666;DHT22;3875;46.562;4.898;2024-02-26T16:44:56;14.40;75.60
7666;DHT22;3875;46.562;4.898;2024-02-26T16:47:22;14.30;75.80
7666;DHT22;3875;46.562;4.898;2024-02-26T16:49:51;14.20;76.10
7666;DHT22;3875;46.562;4.898;2024-02-26T16:52:17;14.20;76.50